createdAt,value
2019-02-12T00:01:56.933Z,1.75
2019-02-12T00:04:46.894Z,1.60
2019-02-12T00:07:37.047Z,1.52
2019-02-12T00:10:26.863Z,1.35
2019-02-12T00:13:17.003Z,1.35
2019-02-12T00:16:07.169Z,1.37
2019-02-12T00:18:57.126Z,1.67
2019-02-12T00:21:47.020Z,1.80
2019-02-12T00:24:37.047Z,1.35
2019-02-12T00:27:26.794Z,2.40
2019-02-12T00:30:16.795Z,2.47
2019-02-12T00:33:06.575Z,1.55
2019-02-12T00:35:56.568Z,1.82
2019-02-12T00:38:46.205Z,1.00
2019-02-12T00:41:36.312Z,1.85
2019-02-12T00:44:26.316Z,1.98
2019-02-12T00:47:16.373Z,2.60
2019-02-12T00:50:06.549Z,2.35
2019-02-12T00:52:56.452Z,1.70
2019-02-12T00:55:46.366Z,2.33
2019-02-12T00:58:37.254Z,1.65
2019-02-12T01:01:27.195Z,2.15
2019-02-12T01:04:17.194Z,1.67
2019-02-12T01:07:06.885Z,1.90
2019-02-12T01:09:56.561Z,1.20
2019-02-12T01:12:46.524Z,1.25
2019-02-12T01:15:36.833Z,2.70
2019-02-12T01:18:27.049Z,1.85
2019-02-12T01:21:16.502Z,1.30
2019-02-12T01:24:06.087Z,2.15
2019-02-12T01:26:56.275Z,1.45
2019-02-12T01:29:46.276Z,1.50
2019-02-12T01:32:36.415Z,1.25
2019-02-12T01:35:26.141Z,2.30
2019-02-12T01:38:16.023Z,4.90
2019-02-12T01:41:06.197Z,1.27
2019-02-12T01:43:56.476Z,1.32
2019-02-12T01:46:46.397Z,1.70
2019-02-12T01:49:36.579Z,1.85
2019-02-12T01:52:26.703Z,1.00
2019-02-12T01:55:16.203Z,1.10
2019-02-12T01:58:05.896Z,1.45
2019-02-12T02:00:55.741Z,1.47
2019-02-12T02:03:45.752Z,1.32
2019-02-12T02:06:35.752Z,1.32
2019-02-12T02:09:25.535Z,1.50
2019-02-12T02:12:15.374Z,1.32
2019-02-12T02:15:05.662Z,1.35
2019-02-12T02:17:55.087Z,1.25
2019-02-12T02:20:45.234Z,2.22
2019-02-12T02:23:34.932Z,1.70
2019-02-12T02:26:25.197Z,1.17
2019-02-12T02:29:15.013Z,1.10
2019-02-12T02:32:07.724Z,1.10
2019-02-12T02:34:57.444Z,2.10
2019-02-12T02:37:47.185Z,1.62
2019-02-12T02:40:37.185Z,1.42
2019-02-12T02:43:26.977Z,1.72
2019-02-12T02:46:16.646Z,3.08
2019-02-12T02:49:06.418Z,1.22
2019-02-12T02:51:56.393Z,2.35
2019-02-12T02:54:46.423Z,1.40
2019-02-12T02:57:36.385Z,0.70
2019-02-12T03:00:26.056Z,1.57
2019-02-12T03:03:15.707Z,1.32
2019-02-12T03:06:05.539Z,1.20
2019-02-12T03:08:55.376Z,1.55
2019-02-12T03:11:45.316Z,1.62
2019-02-12T03:14:35.555Z,1.90
2019-02-12T03:17:25.277Z,1.85
2019-02-12T03:20:15.224Z,1.20
2019-02-12T03:23:05.128Z,1.65
2019-02-12T03:25:55.283Z,2.15
2019-02-12T03:28:45.295Z,1.10
2019-02-12T03:31:35.409Z,1.90
2019-02-12T03:34:25.153Z,3.12
2019-02-12T03:37:15.413Z,2.08
2019-02-12T03:40:05.852Z,3.42
2019-02-12T03:42:55.525Z,1.72
2019-02-12T03:45:45.777Z,1.80
2019-02-12T03:48:35.927Z,2.65
2019-02-12T03:51:25.846Z,2.95
2019-02-12T03:54:15.842Z,1.95
2019-02-12T03:57:05.656Z,1.67
2019-02-12T03:59:55.656Z,1.85
2019-02-12T04:03:03.296Z,2.47
2019-02-12T04:05:53.613Z,1.95
2019-02-12T04:08:43.571Z,1.85
2019-02-12T04:11:33.238Z,2.80
2019-02-12T04:14:22.813Z,2.45
2019-02-12T04:17:12.412Z,3.25
2019-02-12T04:20:03.095Z,1.52
2019-02-12T04:22:53.140Z,2.77
2019-02-12T04:25:42.875Z,1.85
2019-02-12T04:28:36.760Z,1.37
2019-02-12T04:31:26.255Z,1.45
2019-02-12T04:34:16.623Z,1.85
2019-02-12T04:37:06.949Z,2.27
2019-02-12T04:39:56.807Z,2.25
2019-02-12T04:42:46.666Z,1.50
2019-02-12T04:45:36.763Z,2.00
2019-02-12T04:48:26.629Z,1.85
2019-02-12T04:51:16.634Z,2.33
2019-02-12T04:54:07.824Z,2.55
2019-02-12T04:56:57.633Z,2.60
2019-02-12T04:59:47.483Z,2.02
2019-02-12T05:02:37.292Z,2.10
2019-02-12T05:05:27.073Z,2.50
2019-02-12T05:08:16.853Z,2.45
2019-02-12T05:11:06.705Z,3.52
2019-02-12T05:13:56.528Z,2.77
2019-02-12T05:16:46.467Z,1.70
2019-02-12T05:19:36.467Z,1.60
2019-02-12T05:22:26.332Z,1.77
2019-02-12T05:25:16.346Z,2.85
2019-02-12T05:28:06.122Z,2.72
2019-02-12T05:30:56.257Z,3.27
2019-02-12T05:33:46.117Z,2.83
2019-02-12T05:36:35.952Z,1.57
2019-02-12T05:39:25.573Z,2.95
2019-02-12T05:42:15.404Z,1.70
2019-02-12T05:45:05.496Z,2.27
2019-02-12T05:47:55.518Z,2.05
2019-02-12T05:50:45.507Z,2.42
2019-02-12T05:53:35.364Z,1.75
2019-02-12T05:56:25.281Z,1.98
2019-02-12T05:59:15.354Z,1.70
2019-02-12T06:02:04.969Z,2.37
2019-02-12T06:04:54.872Z,1.52
2019-02-12T06:07:44.805Z,2.22
2019-02-12T06:10:34.226Z,2.10
2019-02-12T06:13:24.034Z,1.50
2019-02-12T06:16:14.022Z,2.00
2019-02-12T06:19:03.886Z,2.27
2019-02-12T06:21:53.576Z,1.85
2019-02-12T06:24:43.535Z,2.15
2019-02-12T06:27:33.232Z,1.95
2019-02-12T06:30:23.333Z,1.90
2019-02-12T06:33:13.412Z,2.22
2019-02-12T06:36:03.613Z,2.42
2019-02-12T06:38:53.431Z,2.20
2019-02-12T06:41:43.356Z,2.90
2019-02-12T06:44:33.153Z,1.82
2019-02-12T06:47:22.920Z,1.87
2019-02-12T06:50:12.623Z,3.15
2019-02-12T06:53:02.012Z,2.08
2019-02-12T06:55:51.775Z,3.12
2019-02-12T06:58:41.697Z,1.95
2019-02-12T07:01:31.761Z,1.87
2019-02-12T07:04:25.125Z,2.67
2019-02-12T07:07:40.193Z,1.80
2019-02-12T07:10:35.113Z,2.25
2019-02-12T07:14:08.907Z,2.80
2019-02-12T07:17:33.935Z,3.42
2019-02-12T07:21:14.311Z,1.65
2019-02-12T07:24:38.906Z,2.47
2019-02-12T07:28:04.925Z,2.00
2019-02-12T07:31:44.990Z,2.27
2019-02-12T07:34:49.655Z,1.95
2019-02-12T07:38:15.848Z,3.10
2019-02-12T07:41:55.615Z,2.35
2019-02-12T07:45:22.046Z,2.25
2019-02-12T07:48:54.304Z,3.50
2019-02-12T07:52:31.095Z,4.72
2019-02-12T07:55:57.637Z,4.55
2019-02-12T07:59:46.720Z,5.00
2019-02-12T08:03:05.235Z,3.75
2019-02-12T08:06:05.525Z,4.67
2019-02-12T08:09:19.480Z,4.00
2019-02-12T08:12:35.527Z,4.92
2019-02-12T08:15:53.122Z,2.95
2019-02-12T08:19:30.046Z,3.40
2019-02-12T08:22:54.023Z,2.58
2019-02-12T08:25:56.603Z,3.20
2019-02-12T08:29:22.553Z,2.62
2019-02-12T08:32:29.777Z,2.27
2019-02-12T08:35:57.071Z,3.45
2019-02-12T08:39:37.650Z,2.83
2019-02-12T08:42:50.727Z,3.25
2019-02-12T08:46:30.026Z,2.35
2019-02-12T08:49:48.396Z,2.35
2019-02-12T08:53:07.332Z,2.65
2019-02-12T08:56:22.910Z,2.87
2019-02-12T08:59:43.513Z,1.80
2019-02-12T09:03:40.976Z,1.60
2019-02-12T09:07:26.843Z,1.42
2019-02-12T09:11:08.366Z,2.58
2019-02-12T09:14:18.185Z,1.25
2019-02-12T09:17:57.658Z,2.25
2019-02-12T09:21:43.626Z,1.30
2019-02-12T09:25:09.891Z,2.10
2019-02-12T09:28:16.434Z,1.40
2019-02-12T09:31:52.118Z,1.77
2019-02-12T09:35:12.817Z,1.05
2019-02-12T09:38:51.836Z,2.00
2019-02-12T09:42:10.078Z,1.65
2019-02-12T09:45:47.605Z,1.87
2019-02-12T09:49:09.353Z,1.60
2019-02-12T09:52:35.766Z,1.32
2019-02-12T09:55:34.917Z,1.98
2019-02-12T09:59:04.373Z,1.92
2019-02-12T10:02:18.938Z,1.70
2019-02-12T10:05:40.377Z,2.30
2019-02-12T10:09:09.869Z,1.57
2019-02-12T10:12:23.920Z,2.98
2019-02-12T10:15:37.996Z,1.60
2019-02-12T10:19:08.706Z,1.90
2019-02-12T10:22:42.516Z,1.52
2019-02-12T10:25:41.152Z,3.40
2019-02-12T10:29:14.336Z,2.35
2019-02-12T10:32:08.647Z,2.40
2019-02-12T10:34:54.418Z,3.15
2019-02-12T10:37:43.872Z,2.00
2019-02-12T10:40:33.677Z,2.20
2019-02-12T10:43:23.287Z,1.98
2019-02-12T10:46:13.491Z,1.45
2019-02-12T10:49:02.682Z,3.17
2019-02-12T10:51:52.564Z,1.70
2019-02-12T10:54:42.452Z,1.77
2019-02-12T10:57:32.103Z,1.70
2019-02-12T11:00:22.232Z,1.40
2019-02-12T11:03:12.387Z,2.65
2019-02-12T11:06:02.192Z,2.25
2019-02-12T11:08:52.072Z,1.72
2019-02-12T11:11:41.752Z,1.47
2019-02-12T11:14:31.574Z,2.00
2019-02-12T11:17:21.415Z,1.60
2019-02-12T11:20:11.609Z,1.35
2019-02-12T11:23:01.166Z,1.75
2019-02-12T11:25:50.814Z,2.08
2019-02-12T11:28:40.727Z,1.95
2019-02-12T11:31:30.792Z,2.17
2019-02-12T11:34:20.773Z,1.57
2019-02-12T11:37:10.632Z,1.35
2019-02-12T11:40:00.818Z,1.77
2019-02-12T11:42:50.604Z,2.45
2019-02-12T11:45:40.235Z,1.85
2019-02-12T11:48:29.916Z,2.00
2019-02-12T11:51:19.891Z,2.35
2019-02-12T11:54:09.753Z,2.35
2019-02-12T11:56:59.953Z,1.95
2019-02-12T11:59:49.956Z,2.08
2019-02-12T12:02:42.075Z,2.12
2019-02-12T12:05:31.327Z,2.05
2019-02-12T12:08:20.945Z,2.52
2019-02-12T12:11:10.966Z,2.12
2019-02-12T12:14:00.702Z,2.30
2019-02-12T12:16:50.736Z,2.12
2019-02-12T12:19:40.431Z,2.35
2019-02-12T12:22:30.420Z,1.77
2019-02-12T12:25:20.615Z,1.92
2019-02-12T12:28:10.763Z,2.30
2019-02-12T12:31:00.573Z,3.15
2019-02-12T12:33:50.452Z,2.40
2019-02-12T12:36:40.165Z,2.15
2019-02-12T12:39:29.938Z,2.22
2019-02-12T12:42:19.971Z,2.60
2019-02-12T12:45:10.753Z,4.45
2019-02-12T12:48:00.676Z,1.75
2019-02-12T12:50:50.619Z,2.00
2019-02-12T12:53:40.216Z,1.75
2019-02-12T12:56:30.112Z,1.92
2019-02-12T12:59:21.599Z,2.10
2019-02-12T13:02:11.241Z,2.05
2019-02-12T13:05:02.678Z,1.72
2019-02-12T13:07:53.974Z,1.82
2019-02-12T13:10:44.677Z,3.58
2019-02-12T13:13:34.664Z,1.85
2019-02-12T13:16:25.594Z,3.12
2019-02-12T13:19:16.336Z,2.60
2019-02-12T13:22:06.685Z,5.50
2019-02-12T13:24:56.210Z,3.87
2019-02-12T13:27:46.337Z,2.87
2019-02-12T13:30:36.414Z,2.50
2019-02-12T13:33:26.657Z,1.67
2019-02-12T13:36:16.907Z,1.45
2019-02-12T13:39:07.578Z,1.35
2019-02-12T13:41:57.872Z,2.00
2019-02-12T13:44:48.026Z,2.00
2019-02-12T13:47:38.235Z,1.70
2019-02-12T13:50:29.184Z,1.52
2019-02-12T13:53:19.455Z,1.50
2019-02-12T13:56:09.344Z,1.27
2019-02-12T13:58:59.395Z,1.92
2019-02-12T14:01:49.205Z,1.98
2019-02-12T14:04:39.274Z,1.62
2019-02-12T14:07:29.368Z,1.57
2019-02-12T14:10:19.311Z,1.60
2019-02-12T14:13:09.550Z,1.40
2019-02-12T14:15:59.445Z,3.52
2019-02-12T14:18:49.071Z,2.87
2019-02-12T14:21:38.883Z,2.35
2019-02-12T14:24:28.626Z,1.98
2019-02-12T14:27:18.735Z,1.72
2019-02-12T14:30:08.971Z,2.20
2019-02-12T14:33:00.012Z,1.85
2019-02-12T14:35:50.012Z,1.60
2019-02-12T14:38:40.231Z,1.35
2019-02-12T14:41:30.202Z,1.80
2019-02-12T14:44:20.071Z,2.40
2019-02-12T14:47:09.875Z,1.20
2019-02-12T14:49:59.755Z,1.75
2019-02-12T14:52:49.592Z,1.30
2019-02-12T14:55:39.493Z,1.52
2019-02-12T14:58:29.391Z,1.50
2019-02-12T15:01:19.284Z,1.00
2019-02-12T15:04:08.985Z,1.17
2019-02-12T15:06:58.944Z,1.20
2019-02-12T15:09:48.721Z,1.67
2019-02-12T15:12:38.381Z,2.30
2019-02-12T15:15:28.274Z,1.60
2019-02-12T15:18:18.232Z,1.10
2019-02-12T15:21:08.141Z,1.45
2019-02-12T15:23:58.401Z,1.80
2019-02-12T15:26:48.201Z,1.65
2019-02-12T15:29:38.304Z,1.22
2019-02-12T15:32:28.463Z,1.35
2019-02-12T15:35:18.283Z,1.45
2019-02-12T15:38:07.932Z,1.37
2019-02-12T15:40:58.155Z,1.10
2019-02-12T15:43:47.982Z,1.65
2019-02-12T15:46:39.177Z,1.52
2019-02-12T15:49:29.124Z,1.20
2019-02-12T15:52:18.795Z,1.12
2019-02-12T15:55:09.891Z,1.62
2019-02-12T15:58:00.884Z,1.37
2019-02-12T16:00:50.804Z,1.37
2019-02-12T16:03:40.364Z,1.95
2019-02-12T16:06:30.263Z,1.50
2019-02-12T16:09:20.233Z,2.90
2019-02-12T16:12:10.343Z,1.95
2019-02-12T16:15:01.594Z,1.72
2019-02-12T16:17:51.725Z,1.77
2019-02-12T16:20:41.792Z,1.55
2019-02-12T16:23:31.661Z,2.10
2019-02-12T16:26:21.884Z,1.52
2019-02-12T16:29:11.924Z,2.65
2019-02-12T16:32:01.537Z,2.00
2019-02-12T16:34:51.394Z,2.12
2019-02-12T16:37:41.381Z,1.55
2019-02-12T16:40:32.195Z,1.82
2019-02-12T16:43:21.882Z,2.17
2019-02-12T16:46:14.902Z,3.22
2019-02-12T16:49:05.125Z,1.75
2019-02-12T16:51:54.881Z,1.85
2019-02-12T16:54:44.873Z,1.90
2019-02-12T16:57:34.551Z,2.58
2019-02-12T17:00:24.504Z,2.30
2019-02-12T17:03:14.454Z,3.12
2019-02-12T17:06:04.444Z,3.25
2019-02-12T17:08:54.503Z,2.08
2019-02-12T17:11:44.342Z,3.00
2019-02-12T17:14:33.875Z,2.80
2019-02-12T17:17:23.502Z,2.65
2019-02-12T17:20:15.573Z,3.90
2019-02-12T17:23:05.554Z,4.37
2019-02-12T17:25:55.412Z,2.92
2019-02-12T17:28:45.191Z,4.00
2019-02-12T17:31:35.091Z,4.92
2019-02-12T17:34:25.064Z,3.45
2019-02-12T17:37:14.634Z,5.20
2019-02-12T17:40:04.892Z,4.15
2019-02-12T17:42:55.844Z,5.25
2019-02-12T17:45:49.792Z,5.25
2019-02-12T17:48:39.755Z,5.67
2019-02-12T17:51:29.633Z,5.72
2019-02-12T17:54:19.693Z,6.53
2019-02-12T17:57:09.543Z,6.47
2019-02-12T17:59:59.192Z,8.25
2019-02-12T18:02:49.155Z,7.30
2019-02-12T18:05:39.119Z,7.58
2019-02-12T18:08:29.188Z,7.65
2019-02-12T18:11:19.297Z,7.75
2019-02-12T18:14:09.486Z,7.85
2019-02-12T18:16:59.126Z,9.25
2019-02-12T18:19:48.994Z,8.75
2019-02-12T18:22:38.886Z,8.48
2019-02-12T18:25:29.015Z,9.13
2019-02-12T18:28:19.266Z,8.33
2019-02-12T18:31:09.075Z,9.50
2019-02-12T18:33:58.723Z,8.63
2019-02-12T18:36:48.413Z,8.73
2019-02-12T18:39:38.482Z,9.70
2019-02-12T18:42:28.512Z,8.83
2019-02-12T18:45:18.935Z,9.53
2019-02-12T18:48:08.945Z,8.25
2019-02-12T18:50:59.256Z,8.23
2019-02-12T18:53:48.717Z,8.28
2019-02-12T18:56:41.726Z,8.20
2019-02-12T18:59:30.554Z,8.55
2019-02-12T19:02:20.833Z,10.70
2019-02-12T19:05:10.537Z,8.80
2019-02-12T19:08:00.484Z,8.53
2019-02-12T19:10:51.286Z,9.80
2019-02-12T19:13:40.853Z,10.25
2019-02-12T19:16:30.846Z,9.35
2019-02-12T19:19:20.652Z,9.28
2019-02-12T19:22:10.647Z,10.30
2019-02-12T19:25:00.496Z,9.43
2019-02-12T19:27:50.495Z,9.10
2019-02-12T19:30:40.582Z,8.10
2019-02-12T19:33:30.743Z,9.03
2019-02-12T19:36:20.773Z,10.78
2019-02-12T19:39:10.937Z,8.83
2019-02-12T19:42:00.693Z,8.45
2019-02-12T19:44:50.616Z,10.90
2019-02-12T19:47:40.815Z,8.80
2019-02-12T19:50:30.484Z,9.35
2019-02-12T19:53:20.315Z,9.28
2019-02-12T19:56:09.965Z,8.73
2019-02-12T19:59:00.001Z,9.00
2019-02-12T20:01:50.115Z,9.85
2019-02-12T20:04:41.553Z,8.85
2019-02-12T20:07:31.343Z,10.20
2019-02-12T20:10:21.515Z,10.82
2019-02-12T20:13:11.207Z,9.90
2019-02-12T20:16:01.386Z,8.80
2019-02-12T20:18:52.368Z,9.20
2019-02-12T20:21:42.301Z,9.35
2019-02-12T20:24:32.047Z,10.85
2019-02-12T20:27:22.323Z,12.55
2019-02-12T20:30:13.563Z,11.57
2019-02-12T20:33:03.367Z,10.58
2019-02-12T20:35:53.373Z,11.85
2019-02-12T20:38:43.551Z,12.70
2019-02-12T20:41:33.275Z,12.33
2019-02-12T20:44:23.243Z,11.85
2019-02-12T20:47:13.247Z,13.32
2019-02-12T20:50:02.847Z,11.90
2019-02-12T20:52:52.685Z,12.03
2019-02-12T20:55:42.592Z,12.40
2019-02-12T20:58:32.442Z,12.55
2019-02-12T21:01:22.235Z,12.45
2019-02-12T21:04:11.915Z,13.20
2019-02-12T21:07:01.630Z,13.38
2019-02-12T21:09:51.693Z,12.45
2019-02-12T21:12:41.775Z,13.55
2019-02-12T21:15:31.687Z,12.68
2019-02-12T21:18:21.603Z,11.85
2019-02-12T21:21:11.205Z,12.33
2019-02-12T21:24:01.194Z,13.38
2019-02-12T21:26:50.964Z,12.82
2019-02-12T21:29:40.753Z,12.75
2019-02-12T21:32:32.208Z,12.70
2019-02-12T21:35:22.478Z,10.45
2019-02-12T21:38:15.820Z,12.75
2019-02-12T21:41:06.094Z,12.13
2019-02-12T21:43:56.790Z,11.33
2019-02-12T21:46:47.846Z,11.83
2019-02-12T21:49:38.614Z,9.93
2019-02-12T21:52:28.915Z,10.55
2019-02-12T21:55:18.468Z,10.50
2019-02-12T21:58:08.595Z,10.10
2019-02-12T22:00:59.586Z,10.90
2019-02-12T22:03:49.392Z,10.82
2019-02-12T22:06:38.998Z,10.60
2019-02-12T22:09:28.745Z,11.20
2019-02-12T22:12:18.779Z,9.58
2019-02-12T22:15:11.308Z,10.90
2019-02-12T22:18:01.542Z,10.68
2019-02-12T22:20:51.536Z,9.98
2019-02-12T22:23:41.515Z,10.72
2019-02-12T22:26:31.505Z,10.95
2019-02-12T22:29:21.295Z,10.08
2019-02-12T22:32:11.396Z,10.18
2019-02-12T22:35:01.390Z,11.68
2019-02-12T22:37:51.153Z,10.80
2019-02-12T22:40:41.313Z,11.80
2019-02-12T22:43:31.505Z,9.95
2019-02-12T22:46:21.483Z,11.40
2019-02-12T22:49:11.377Z,11.85
2019-02-12T22:52:01.156Z,12.45
2019-02-12T22:54:50.912Z,13.10
2019-02-12T22:57:48.590Z,11.45
2019-02-12T23:00:47.465Z,13.53
2019-02-12T23:03:38.975Z,11.40
2019-02-12T23:06:28.552Z,11.20
2019-02-12T23:09:19.526Z,12.25
2019-02-12T23:12:09.853Z,13.15
2019-02-12T23:14:59.989Z,12.37
2019-02-12T23:17:49.783Z,12.98
2019-02-12T23:20:39.922Z,13.10
2019-02-12T23:23:30.066Z,14.23
2019-02-12T23:26:19.871Z,10.58
2019-02-12T23:29:09.415Z,12.78
2019-02-12T23:32:00.501Z,11.80
2019-02-12T23:34:56.937Z,13.13
2019-02-12T23:37:41.911Z,13.53
2019-02-12T23:40:31.841Z,12.70
2019-02-12T23:43:22.555Z,12.70
2019-02-12T23:46:12.473Z,13.40
2019-02-12T23:49:02.455Z,12.10
2019-02-12T23:51:52.413Z,13.18
2019-02-12T23:54:42.232Z,12.37
2019-02-12T23:57:32.072Z,13.75
